Leiden, Netherlands
Current Conditions -  °F | °C
As of 3:25 AM on Monday 26 Jan 2015 (Local Time) from EHRD Reporting Station
Overcast Overcast  
Wind Chill: 37°   Ceiling: 600
Heat Index: 43°   Visibility: 5mi
Dew Point: 41°   Wind: 10mph
Humidity: 93%   Direction: 220°SW
Pressure: 30.21"   Gusts: NA
Location:  52.15°N, 4.48°E
Report Text: EHRD 260225Z AUTO 22009KT 8000 OVC006 06/05 Q1023 NOSIG
Loading
Personal Weather Stations






























Interactive Weather Map New forecast layout! Learn more

10-Day Weather Forecast

Advertisements
Track Severe Weather on mobile